createdAt,value
2018-03-21T00:02:08.633Z,15.83
2018-03-21T00:04:36.269Z,12.60
2018-03-21T00:07:03.909Z,12.57
2018-03-21T00:09:31.591Z,11.90
2018-03-21T00:11:59.211Z,11.10
2018-03-21T00:14:26.793Z,12.40
2018-03-21T00:16:54.439Z,12.97
2018-03-21T00:19:22.914Z,12.27
2018-03-21T00:21:50.494Z,11.80
2018-03-21T00:24:18.069Z,13.23
2018-03-21T00:26:45.941Z,12.67
2018-03-21T00:29:13.535Z,12.80
2018-03-21T00:31:41.180Z,13.07
2018-03-21T00:34:09.011Z,12.40
2018-03-21T00:36:36.591Z,12.17
2018-03-21T00:39:04.228Z,11.80
2018-03-21T00:41:31.872Z,12.37
2018-03-21T00:43:59.522Z,12.27
2018-03-21T00:46:27.103Z,11.67
2018-03-21T00:48:54.754Z,11.60
2018-03-21T00:51:22.321Z,11.00
2018-03-21T00:53:49.970Z,13.00
2018-03-21T00:56:17.601Z,14.47
2018-03-21T00:58:45.245Z,11.90
2018-03-21T01:01:13.573Z,12.47
2018-03-21T01:03:41.528Z,13.43
2018-03-21T01:06:09.729Z,11.53
2018-03-21T01:08:37.315Z,12.87
2018-03-21T01:11:04.973Z,12.97
2018-03-21T01:13:32.622Z,12.50
2018-03-21T01:16:00.865Z,12.67
2018-03-21T01:18:28.780Z,12.87
2018-03-21T01:20:56.368Z,13.40
2018-03-21T01:23:23.994Z,13.53
2018-03-21T01:25:51.880Z,12.60
2018-03-21T01:28:19.464Z,10.73
2018-03-21T01:30:47.053Z,12.70
2018-03-21T01:33:14.692Z,11.10
2018-03-21T01:35:43.153Z,11.20
2018-03-21T01:38:10.755Z,10.50
2018-03-21T01:40:38.405Z,11.40
2018-03-21T01:43:06.020Z,13.73
2018-03-21T01:45:33.638Z,12.37
2018-03-21T01:48:01.481Z,13.37
2018-03-21T01:50:29.139Z,13.70
2018-03-21T01:53:08.761Z,15.53
2018-03-21T01:55:36.346Z,15.20
2018-03-21T01:58:03.970Z,17.87
2018-03-21T02:00:31.852Z,16.27
2018-03-21T02:02:59.534Z,15.23
2018-03-21T02:05:27.104Z,12.37
2018-03-21T02:07:54.732Z,13.13
2018-03-21T02:10:23.255Z,12.57
2018-03-21T02:12:50.846Z,14.13
2018-03-21T02:15:18.498Z,13.63
2018-03-21T02:17:46.070Z,11.60
2018-03-21T02:20:13.673Z,13.17
2018-03-21T02:22:41.306Z,13.30
2018-03-21T02:25:08.892Z,12.70
2018-03-21T02:27:36.537Z,14.13
2018-03-21T02:30:04.448Z,12.93
2018-03-21T02:32:32.052Z,12.37
2018-03-21T02:34:59.637Z,14.50
2018-03-21T02:37:27.290Z,13.80
2018-03-21T02:39:54.879Z,11.20
2018-03-21T02:42:22.556Z,10.33
2018-03-21T02:44:50.232Z,13.10
2018-03-21T02:47:17.804Z,11.33
2018-03-21T02:49:45.388Z,10.50
2018-03-21T02:52:13.242Z,12.93
2018-03-21T02:54:40.902Z,12.63
2018-03-21T02:57:08.542Z,13.10
2018-03-21T02:59:36.222Z,12.03
2018-03-21T03:02:03.853Z,14.60
2018-03-21T03:04:31.698Z,15.10
2018-03-21T03:06:59.552Z,14.37
2018-03-21T03:09:27.183Z,15.77
2018-03-21T03:11:54.760Z,14.30
2018-03-21T03:14:22.411Z,14.63
2018-03-21T03:16:50.004Z,15.10
2018-03-21T03:19:17.657Z,14.67
2018-03-21T03:21:45.289Z,15.57
2018-03-21T03:24:12.938Z,18.47
2018-03-21T03:26:40.540Z,17.03
2018-03-21T03:29:08.429Z,20.03
2018-03-21T03:31:36.093Z,17.80
2018-03-21T03:34:03.696Z,19.47
2018-03-21T03:36:31.677Z,15.80
2018-03-21T03:38:59.322Z,18.53
2018-03-21T03:41:26.946Z,19.00
2018-03-21T03:43:54.597Z,15.37
2018-03-21T03:46:22.243Z,17.50
2018-03-21T03:48:49.833Z,14.60
2018-03-21T03:51:17.543Z,14.30
2018-03-21T03:53:45.138Z,10.73
2018-03-21T03:56:12.725Z,12.60
2018-03-21T03:58:40.723Z,13.13
2018-03-21T04:01:08.321Z,13.10
2018-03-21T04:03:35.917Z,14.37
2018-03-21T04:06:05.051Z,13.83
2018-03-21T04:08:32.678Z,13.07
2018-03-21T04:11:00.244Z,13.17
2018-03-21T04:13:27.869Z,14.13
2018-03-21T04:15:55.490Z,13.67
2018-03-21T04:18:23.089Z,11.13
2018-03-21T04:20:51.041Z,11.50
2018-03-21T04:23:18.645Z,10.33
2018-03-21T04:25:46.225Z,11.20
2018-03-21T04:28:13.885Z,12.53
2018-03-21T04:30:41.465Z,10.27
2018-03-21T04:33:09.109Z,10.40
2018-03-21T04:35:37.045Z,10.40
2018-03-21T04:38:04.669Z,11.17
2018-03-21T04:40:32.251Z,13.43
2018-03-21T04:42:59.876Z,10.27
2018-03-21T04:45:27.474Z,12.53
2018-03-21T04:47:55.109Z,10.83
2018-03-21T04:50:22.793Z,9.17
2018-03-21T04:52:50.360Z,13.37
2018-03-21T04:55:17.916Z,14.27
2018-03-21T04:57:45.776Z,11.87
2018-03-21T05:00:13.486Z,12.93
2018-03-21T05:02:41.391Z,14.23
2018-03-21T05:05:09.982Z,11.87
2018-03-21T05:07:37.653Z,13.97
2018-03-21T05:10:05.246Z,12.07
2018-03-21T05:12:32.900Z,12.07
2018-03-21T05:15:00.489Z,11.43
2018-03-21T05:17:28.095Z,15.60
2018-03-21T05:19:55.775Z,11.20
2018-03-21T05:22:23.386Z,13.80
2018-03-21T05:24:50.960Z,11.97
2018-03-21T05:27:18.657Z,14.73
2018-03-21T05:29:46.221Z,12.80
2018-03-21T05:32:13.813Z,11.27
2018-03-21T05:34:41.722Z,13.27
2018-03-21T05:37:09.314Z,11.80
2018-03-21T05:39:36.922Z,14.70
2018-03-21T05:42:04.584Z,15.07
2018-03-21T05:44:33.041Z,14.77
2018-03-21T05:47:00.609Z,15.77
2018-03-21T05:49:28.530Z,15.10
2018-03-21T05:51:56.104Z,17.33
2018-03-21T05:54:23.681Z,13.70
2018-03-21T05:56:51.339Z,17.87
2018-03-21T05:59:18.990Z,24.60
2018-03-21T06:01:46.566Z,19.87
2018-03-21T06:04:14.274Z,14.27
2018-03-21T06:06:41.842Z,21.43
2018-03-21T06:09:09.570Z,13.10
2018-03-21T06:11:37.445Z,18.50
2018-03-21T06:14:05.099Z,14.60
2018-03-21T06:16:32.698Z,20.20
2018-03-21T06:19:00.358Z,15.07
2018-03-21T06:21:27.915Z,14.83
2018-03-21T06:23:55.494Z,16.17
2018-03-21T06:26:23.415Z,16.80
2018-03-21T06:28:51.065Z,18.70
2018-03-21T06:31:18.662Z,19.37
2018-03-21T06:33:46.358Z,18.27
2018-03-21T06:36:13.929Z,16.43
2018-03-21T06:38:41.606Z,18.20
2018-03-21T06:41:09.297Z,17.43
2018-03-21T06:43:37.432Z,27.83
2018-03-21T06:46:05.086Z,17.77
2018-03-21T06:48:32.738Z,16.90
2018-03-21T06:51:00.326Z,20.47
2018-03-21T06:53:28.041Z,21.03
2018-03-21T06:55:55.692Z,16.30
2018-03-21T06:58:23.296Z,18.10
2018-03-21T07:00:50.946Z,21.03
2018-03-21T07:03:18.800Z,18.83
2018-03-21T07:05:46.395Z,21.07
2018-03-21T07:08:14.067Z,19.97
2018-03-21T07:10:41.864Z,23.20
2018-03-21T07:13:09.459Z,19.50
2018-03-21T07:15:49.102Z,18.90
2018-03-21T07:18:16.692Z,17.67
2018-03-21T07:20:44.285Z,21.00
2018-03-21T07:23:12.030Z,23.30
2018-03-21T07:25:39.575Z,20.13
2018-03-21T07:28:07.209Z,22.43
2018-03-21T07:30:37.204Z,21.67
2018-03-21T07:33:04.814Z,20.20
2018-03-21T07:35:32.467Z,20.77
2018-03-21T07:38:00.414Z,23.53
2018-03-21T07:40:28.010Z,21.43
2018-03-21T07:42:55.612Z,21.37
2018-03-21T07:45:23.282Z,24.00
2018-03-21T07:47:51.714Z,26.43
2018-03-21T07:50:19.303Z,23.10
2018-03-21T07:52:46.971Z,27.30
2018-03-21T07:55:14.570Z,26.00
2018-03-21T07:57:42.223Z,29.40
2018-03-21T08:00:09.873Z,24.17
2018-03-21T08:02:37.484Z,32.17
2018-03-21T08:05:05.167Z,26.03
2018-03-21T08:07:32.824Z,29.40
2018-03-21T08:10:00.413Z,34.40
2018-03-21T08:12:28.097Z,29.17
2018-03-21T08:14:55.726Z,31.20
2018-03-21T08:17:23.300Z,28.77
2018-03-21T08:19:50.890Z,27.47
2018-03-21T08:22:18.717Z,30.63
2018-03-21T08:24:46.314Z,36.17
2018-03-21T08:27:13.898Z,34.47
2018-03-21T08:29:41.533Z,34.20
2018-03-21T08:32:09.121Z,33.27
2018-03-21T08:34:36.774Z,33.23
2018-03-21T08:37:05.372Z,34.77
2018-03-21T08:39:32.946Z,33.63
2018-03-21T08:42:00.542Z,31.03
2018-03-21T08:44:28.168Z,38.07
2018-03-21T08:46:55.749Z,32.57
2018-03-21T08:49:23.328Z,33.80
2018-03-21T08:51:51.271Z,31.30
2018-03-21T08:54:18.851Z,30.60
2018-03-21T08:56:46.522Z,27.53
2018-03-21T08:59:14.152Z,31.50
2018-03-21T09:01:41.757Z,33.90
2018-03-21T09:04:09.718Z,34.83
2018-03-21T09:06:37.352Z,25.00
2018-03-21T09:09:05.043Z,28.93
2018-03-21T09:11:32.636Z,28.40
2018-03-21T09:14:00.445Z,32.30
2018-03-21T09:16:28.043Z,34.13
2018-03-21T09:18:55.634Z,44.73
2018-03-21T09:21:23.302Z,34.43
2018-03-21T09:23:50.898Z,37.40
2018-03-21T09:26:18.499Z,34.30
2018-03-21T09:28:46.148Z,36.40
2018-03-21T09:31:14.499Z,38.80
2018-03-21T09:33:42.092Z,33.67
2018-03-21T09:36:09.743Z,37.43
2018-03-21T09:38:37.407Z,30.93
2018-03-21T09:41:05.012Z,32.23
2018-03-21T09:43:32.663Z,30.23
2018-03-21T09:46:00.244Z,30.60
2018-03-21T09:48:27.923Z,27.27
2018-03-21T09:50:55.553Z,41.23
2018-03-21T09:53:23.142Z,37.50
2018-03-21T09:55:50.803Z,30.57
2018-03-21T09:58:18.505Z,29.73
2018-03-21T10:00:46.137Z,36.30
2018-03-21T10:03:13.795Z,39.23
2018-03-21T10:05:41.528Z,35.67
2018-03-21T10:08:09.196Z,31.83
2018-03-21T10:10:36.844Z,28.50
2018-03-21T10:13:04.509Z,28.07
2018-03-21T10:15:32.233Z,23.63
2018-03-21T10:17:59.896Z,26.57
2018-03-21T10:20:27.562Z,23.10
2018-03-21T10:22:55.158Z,26.63
2018-03-21T10:25:22.744Z,30.33
2018-03-21T10:27:50.606Z,21.53
2018-03-21T10:30:18.283Z,22.10
2018-03-21T10:32:46.460Z,25.63
2018-03-21T10:35:14.359Z,23.97
2018-03-21T10:37:41.949Z,24.67
2018-03-21T10:40:09.587Z,26.20
2018-03-21T10:42:37.226Z,25.77
2018-03-21T10:45:04.929Z,29.13
2018-03-21T10:47:32.607Z,23.47
2018-03-21T10:50:00.951Z,22.67
2018-03-21T10:52:38.778Z,24.53
2018-03-21T10:54:56.248Z,28.00
2018-03-21T10:57:23.913Z,24.10
2018-03-21T10:59:51.511Z,17.43
2018-03-21T11:02:19.127Z,17.23
2018-03-21T11:04:46.867Z,16.07
2018-03-21T11:07:14.460Z,18.07
2018-03-21T11:09:42.079Z,17.87
2018-03-21T11:12:09.997Z,16.37
2018-03-21T11:14:37.590Z,17.20
2018-03-21T11:17:05.330Z,17.10
2018-03-21T11:19:32.993Z,16.93
2018-03-21T11:22:00.595Z,16.33
2018-03-21T11:24:28.171Z,15.70
2018-03-21T11:26:56.088Z,16.00
2018-03-21T11:29:23.666Z,20.00
2018-03-21T11:31:51.322Z,17.47
2018-03-21T11:34:20.188Z,18.93
2018-03-21T11:36:47.792Z,20.73
2018-03-21T11:39:16.314Z,17.20
2018-03-21T11:41:43.969Z,16.13
2018-03-21T11:44:11.581Z,16.70
2018-03-21T11:46:39.165Z,14.97
2018-03-21T11:49:06.790Z,15.80
2018-03-21T11:51:34.396Z,18.00
2018-03-21T11:54:01.981Z,16.47
2018-03-21T11:56:30.303Z,14.50
2018-03-21T11:58:57.931Z,16.60
2018-03-21T12:01:25.558Z,18.00
2018-03-21T12:03:53.254Z,17.13
2018-03-21T12:06:20.861Z,16.57
2018-03-21T12:08:48.470Z,16.80
2018-03-21T12:11:16.122Z,18.13
2018-03-21T12:13:44.543Z,17.13
2018-03-21T12:16:12.174Z,16.97
2018-03-21T12:18:39.898Z,17.03
2018-03-21T12:21:07.504Z,17.60
2018-03-21T12:23:35.117Z,16.80
2018-03-21T12:26:02.768Z,20.13
2018-03-21T12:28:30.359Z,16.83
2018-03-21T12:30:57.972Z,17.50
2018-03-21T12:33:25.599Z,21.23
2018-03-21T12:35:53.209Z,20.57
2018-03-21T12:38:20.805Z,22.87
2018-03-21T12:40:48.494Z,19.10
2018-03-21T12:43:16.126Z,17.30
2018-03-21T12:45:43.763Z,15.17
2018-03-21T12:48:11.534Z,15.10
2018-03-21T12:50:39.145Z,12.60
2018-03-21T12:53:06.740Z,13.93
2018-03-21T12:55:34.373Z,11.30
2018-03-21T12:58:01.992Z,11.53
2018-03-21T13:00:29.574Z,14.80
2018-03-21T13:02:57.291Z,14.33
2018-03-21T13:05:24.945Z,12.93
2018-03-21T13:07:52.515Z,12.23
2018-03-21T13:10:20.145Z,7.90
2018-03-21T13:12:47.794Z,9.83
2018-03-21T13:15:15.455Z,8.90
2018-03-21T13:17:43.096Z,7.87
2018-03-21T13:20:10.866Z,7.00
2018-03-21T13:22:38.517Z,6.93
2018-03-21T13:25:06.153Z,6.40
2018-03-21T13:27:33.744Z,7.87
2018-03-21T13:30:02.196Z,5.37
2018-03-21T13:32:30.070Z,5.27
2018-03-21T13:34:58.632Z,8.07
2018-03-21T13:37:26.209Z,7.30
2018-03-21T13:39:53.843Z,6.33
2018-03-21T13:42:21.448Z,7.80
2018-03-21T13:44:49.044Z,14.30
2018-03-21T13:47:16.747Z,14.30
2018-03-21T13:49:44.320Z,14.13
2018-03-21T13:52:11.920Z,14.47
2018-03-21T13:54:39.569Z,11.67
2018-03-21T13:57:07.199Z,11.20
2018-03-21T13:59:34.785Z,13.17
2018-03-21T14:02:02.414Z,14.40
2018-03-21T14:04:30.005Z,11.13
2018-03-21T14:06:57.606Z,12.63
2018-03-21T14:09:25.248Z,13.37
2018-03-21T14:11:52.865Z,14.77
2018-03-21T14:14:20.443Z,12.13
2018-03-21T14:16:48.109Z,25.97
2018-03-21T14:19:15.705Z,13.37
2018-03-21T14:21:43.358Z,12.30
2018-03-21T14:24:11.105Z,11.67
2018-03-21T14:26:38.703Z,12.77
2018-03-21T14:29:06.634Z,13.80
2018-03-21T14:31:34.334Z,14.17
2018-03-21T14:34:01.931Z,14.27
2018-03-21T14:36:29.535Z,18.53
2018-03-21T14:38:57.177Z,18.83
2018-03-21T14:41:24.831Z,15.60
2018-03-21T14:43:52.487Z,17.60
2018-03-21T14:46:20.141Z,16.53
2018-03-21T14:48:47.726Z,19.27
2018-03-21T14:51:15.314Z,20.43
2018-03-21T14:53:42.933Z,17.47
2018-03-21T14:56:10.667Z,19.87
2018-03-21T14:58:38.315Z,23.00
2018-03-21T15:01:06.291Z,20.50
2018-03-21T15:03:33.895Z,20.93
2018-03-21T15:06:02.409Z,23.43
2018-03-21T15:08:30.082Z,25.13
2018-03-21T15:10:57.678Z,26.60
2018-03-21T15:13:25.300Z,26.27
2018-03-21T15:15:52.930Z,23.07
2018-03-21T15:18:20.536Z,23.43
2018-03-21T15:20:48.138Z,27.17
2018-03-21T15:23:15.910Z,27.90
2018-03-21T15:25:43.518Z,27.57
2018-03-21T15:28:11.132Z,28.63
2018-03-21T15:30:38.777Z,28.70
2018-03-21T15:33:06.402Z,33.10
2018-03-21T15:35:34.096Z,28.87
2018-03-21T15:38:01.918Z,33.67
2018-03-21T15:40:30.268Z,27.63
2018-03-21T15:43:16.364Z,32.93
2018-03-21T15:45:45.413Z,36.20
2018-03-21T15:48:13.055Z,39.63
2018-03-21T15:50:40.645Z,39.07
2018-03-21T15:53:08.299Z,44.43
2018-03-21T15:55:35.943Z,40.20
2018-03-21T15:58:03.639Z,38.60
2018-03-21T16:00:31.302Z,37.93
2018-03-21T16:02:58.946Z,41.07
2018-03-21T16:05:26.563Z,38.10
2018-03-21T16:07:54.152Z,39.87
2018-03-21T16:10:21.806Z,38.17
2018-03-21T16:12:49.429Z,37.37
2018-03-21T16:15:17.055Z,43.47
2018-03-21T16:17:44.680Z,42.90
2018-03-21T16:20:12.281Z,40.27
2018-03-21T16:22:39.871Z,45.87
2018-03-21T16:25:07.697Z,44.37
2018-03-21T16:27:35.351Z,48.70
2018-03-21T16:30:02.982Z,43.77
2018-03-21T16:32:31.324Z,42.73
2018-03-21T16:34:58.948Z,47.17
2018-03-21T16:37:26.563Z,50.43
2018-03-21T16:39:54.210Z,42.70
2018-03-21T16:42:21.906Z,43.23
2018-03-21T16:44:49.525Z,47.67
2018-03-21T16:47:17.181Z,60.73
2018-03-21T16:49:44.774Z,59.67
2018-03-21T16:52:12.415Z,76.30
2018-03-21T16:54:40.084Z,62.73
2018-03-21T16:57:08.189Z,32.73
2018-03-21T16:59:35.881Z,29.43
2018-03-21T17:02:03.567Z,33.67
2018-03-21T17:04:31.247Z,40.83
2018-03-21T17:06:58.866Z,36.53
2018-03-21T17:09:26.864Z,31.47
2018-03-21T17:11:54.538Z,23.87
2018-03-21T17:14:22.190Z,18.50
2018-03-21T17:16:50.077Z,20.33
2018-03-21T17:19:18.325Z,21.17
2018-03-21T17:21:46.039Z,21.53
2018-03-21T17:24:13.736Z,19.00
2018-03-21T17:26:41.665Z,18.60
2018-03-21T17:29:10.033Z,22.53
2018-03-21T17:31:38.201Z,25.13
2018-03-21T17:34:06.053Z,25.97
2018-03-21T17:36:33.962Z,23.50
2018-03-21T17:39:02.184Z,23.33
2018-03-21T17:41:30.136Z,22.53
2018-03-21T17:43:58.012Z,23.33
2018-03-21T17:46:25.980Z,20.17
2018-03-21T17:48:53.835Z,20.13
2018-03-21T17:51:21.751Z,20.80
2018-03-21T17:53:49.699Z,20.57
2018-03-21T17:56:17.615Z,20.63
2018-03-21T17:58:45.529Z,21.30
2018-03-21T18:01:13.526Z,22.70
2018-03-21T18:03:41.429Z,21.97
2018-03-21T18:06:09.398Z,25.70
2018-03-21T18:08:37.343Z,25.60
2018-03-21T18:11:05.155Z,24.70
2018-03-21T18:13:33.039Z,21.20
2018-03-21T18:16:01.229Z,25.17
2018-03-21T18:18:29.105Z,18.43
2018-03-21T18:20:56.979Z,21.97
2018-03-21T18:23:24.957Z,13.17
2018-03-21T18:25:52.940Z,14.10
2018-03-21T18:28:20.971Z,15.60
2018-03-21T18:30:48.904Z,14.97
2018-03-21T18:33:16.786Z,13.10
2018-03-21T18:35:44.675Z,13.37
2018-03-21T18:38:12.593Z,12.30
2018-03-21T18:40:40.459Z,13.07
2018-03-21T18:43:08.368Z,13.63
2018-03-21T18:45:36.306Z,11.47
2018-03-21T18:48:04.179Z,12.77
2018-03-21T18:50:32.800Z,12.97
2018-03-21T18:53:01.363Z,12.73
2018-03-21T18:55:29.864Z,12.27
2018-03-21T18:57:57.738Z,10.27
2018-03-21T19:00:25.645Z,12.40
2018-03-21T19:02:53.990Z,9.80
2018-03-21T19:05:21.864Z,11.83
2018-03-21T19:07:49.856Z,11.83
2018-03-21T19:10:17.805Z,11.87
2018-03-21T19:12:45.697Z,11.20
2018-03-21T19:15:13.686Z,10.93
2018-03-21T19:17:41.566Z,10.23
2018-03-21T19:20:09.462Z,10.87
2018-03-21T19:22:37.395Z,9.63
2018-03-21T19:25:05.355Z,9.80
2018-03-21T19:27:33.251Z,11.30
2018-03-21T19:30:01.839Z,10.73
2018-03-21T19:32:29.759Z,11.00
2018-03-21T19:34:57.656Z,11.97
2018-03-21T19:37:26.102Z,10.97
2018-03-21T19:39:54.038Z,11.20
2018-03-21T19:42:24.899Z,9.57
2018-03-21T19:44:52.858Z,9.87
2018-03-21T19:47:20.714Z,8.90
2018-03-21T19:49:48.621Z,9.60
2018-03-21T19:52:16.798Z,9.93
2018-03-21T19:54:44.668Z,14.03
2018-03-21T19:57:12.617Z,12.77
2018-03-21T19:59:40.903Z,12.30
2018-03-21T20:02:08.787Z,11.37
2018-03-21T20:04:36.627Z,8.23
2018-03-21T20:07:04.540Z,9.37
2018-03-21T20:09:43.890Z,8.80
2018-03-21T20:12:11.830Z,9.33
2018-03-21T20:14:39.696Z,8.63
2018-03-21T20:17:07.482Z,8.00
2018-03-21T20:19:35.369Z,10.00
2018-03-21T20:22:03.234Z,9.63
2018-03-21T20:24:31.207Z,12.20
2018-03-21T20:26:59.144Z,24.20
2018-03-21T20:29:27.034Z,15.23
2018-03-21T20:31:54.968Z,10.10
2018-03-21T20:34:23.159Z,8.20
2018-03-21T20:36:51.029Z,9.13
2018-03-21T20:39:18.914Z,8.97
2018-03-21T20:41:46.824Z,9.87
2018-03-21T20:44:14.573Z,9.83
2018-03-21T20:46:42.433Z,10.50
2018-03-21T20:49:10.248Z,9.73
2018-03-21T20:51:38.005Z,10.93
2018-03-21T20:54:05.780Z,8.13
2018-03-21T20:56:33.918Z,6.97
2018-03-21T20:59:01.647Z,8.57
2018-03-21T21:01:29.286Z,8.97
2018-03-21T21:03:56.973Z,8.70
2018-03-21T21:06:24.571Z,10.43
2018-03-21T21:08:52.156Z,8.57
2018-03-21T21:11:19.791Z,10.73
2018-03-21T21:13:47.441Z,7.90
2018-03-21T21:16:15.090Z,10.30
2018-03-21T21:18:42.731Z,7.93
2018-03-21T21:21:10.318Z,8.53
2018-03-21T21:23:37.894Z,10.53
2018-03-21T21:26:05.578Z,10.13
2018-03-21T21:28:33.216Z,10.07
2018-03-21T21:31:00.795Z,10.57
2018-03-21T21:33:28.548Z,11.23
2018-03-21T21:35:56.120Z,10.57
2018-03-21T21:38:23.750Z,9.97
2018-03-21T21:40:51.627Z,9.73
2018-03-21T21:43:19.189Z,10.33
2018-03-21T21:45:46.757Z,13.00
2018-03-21T21:48:14.462Z,10.33
2018-03-21T21:50:42.081Z,9.27
2018-03-21T21:53:09.669Z,9.17
2018-03-21T21:55:37.721Z,10.53
2018-03-21T21:58:05.387Z,10.43
2018-03-21T22:00:32.932Z,9.87
2018-03-21T22:03:00.568Z,10.03
2018-03-21T22:05:28.231Z,11.97
2018-03-21T22:07:55.812Z,9.23
2018-03-21T22:10:23.436Z,15.37
2018-03-21T22:12:51.017Z,11.90
2018-03-21T22:15:18.596Z,9.47
2018-03-21T22:17:46.238Z,11.47
2018-03-21T22:20:13.821Z,10.73
2018-03-21T22:22:41.425Z,11.90
2018-03-21T22:25:09.044Z,11.57
2018-03-21T22:27:36.622Z,10.80
2018-03-21T22:30:04.285Z,12.23
2018-03-21T22:32:31.924Z,14.87
2018-03-21T22:34:59.594Z,12.67
2018-03-21T22:37:27.186Z,14.77
2018-03-21T22:39:56.154Z,12.80
2018-03-21T22:42:23.748Z,11.67
2018-03-21T22:44:51.327Z,12.20
2018-03-21T22:47:19.035Z,13.23
2018-03-21T22:49:46.629Z,14.30
2018-03-21T22:52:14.205Z,13.13
2018-03-21T22:54:42.677Z,16.10
2018-03-21T22:57:10.259Z,13.43
2018-03-21T22:59:37.858Z,13.67
2018-03-21T23:02:06.049Z,15.17
2018-03-21T23:04:33.687Z,17.47
2018-03-21T23:07:01.271Z,14.60
2018-03-21T23:09:29.132Z,14.97
2018-03-21T23:11:56.717Z,17.57
2018-03-21T23:14:24.289Z,16.17
2018-03-21T23:16:51.914Z,16.33
2018-03-21T23:19:19.497Z,16.93
2018-03-21T23:21:47.091Z,15.33
2018-03-21T23:24:15.917Z,16.13
2018-03-21T23:26:43.665Z,16.33
2018-03-21T23:29:11.250Z,16.80
2018-03-21T23:31:38.863Z,16.00
2018-03-21T23:34:06.449Z,16.77
2018-03-21T23:36:34.373Z,15.90
2018-03-21T23:39:01.993Z,15.60
2018-03-21T23:41:29.654Z,15.90
2018-03-21T23:43:57.225Z,15.77
2018-03-21T23:46:25.093Z,16.37
2018-03-21T23:48:52.782Z,15.50
2018-03-21T23:51:20.369Z,14.27
2018-03-21T23:53:48.472Z,16.67
2018-03-21T23:56:16.136Z,15.67
2018-03-21T23:58:43.724Z,15.13
